createdAt,value
2017-04-18T00:00:04.753Z,5.22
2017-04-18T00:01:04.119Z,5.53
2017-04-18T00:02:03.431Z,6.38
2017-04-18T00:03:02.787Z,6.15
2017-04-18T00:04:02.090Z,5.25
2017-04-18T00:05:01.367Z,6.17
2017-04-18T00:06:00.747Z,5.72
2017-04-18T00:07:00.063Z,6.03
2017-04-18T00:07:59.472Z,6.87
2017-04-18T00:08:58.788Z,7.15
2017-04-18T00:17:11.454Z,6.45
2017-04-18T00:18:15.122Z,6.40
2017-04-18T00:19:14.500Z,8.75
2017-04-18T00:20:13.857Z,7.35
2017-04-18T00:21:13.144Z,7.67
2017-04-18T00:22:12.468Z,7.60
2017-04-18T00:23:11.906Z,8.00
2017-04-18T00:24:11.185Z,7.55
2017-04-18T00:25:10.525Z,6.95
2017-04-18T00:26:09.864Z,8.12
2017-04-18T00:27:09.194Z,7.13
2017-04-18T00:28:08.518Z,7.95
2017-04-18T00:29:07.857Z,7.90
2017-04-18T00:30:07.136Z,8.52
2017-04-18T00:31:06.431Z,9.42
2017-04-18T00:32:05.753Z,8.92
2017-04-18T00:33:05.130Z,9.45
2017-04-18T00:34:04.530Z,8.85
2017-04-18T00:35:03.814Z,9.33
2017-04-18T00:36:03.238Z,8.87
2017-04-18T00:37:02.583Z,9.87
2017-04-18T00:38:01.921Z,8.83
2017-04-18T00:39:01.992Z,8.27
2017-04-18T00:40:01.331Z,9.98
2017-04-18T00:41:01.373Z,10.40
2017-04-18T00:42:00.655Z,8.63
2017-04-18T00:43:00.811Z,9.90
2017-04-18T00:44:00.114Z,9.38
2017-04-18T00:45:00.163Z,11.53
2017-04-18T00:45:59.485Z,11.28
2017-04-18T00:46:58.747Z,9.82
2017-04-18T00:47:58.303Z,10.60
2017-04-18T00:48:57.613Z,11.77
2017-04-18T00:49:56.931Z,12.58
2017-04-18T00:50:56.224Z,10.90
2017-04-18T00:51:55.554Z,10.55
2017-04-18T00:52:54.837Z,11.17
2017-04-18T00:53:54.203Z,10.90
2017-04-18T00:54:53.457Z,11.37
2017-04-18T00:55:52.723Z,13.12
2017-04-18T00:56:52.772Z,12.25
2017-04-18T00:57:52.093Z,13.62
2017-04-18T00:58:51.428Z,13.15
2017-04-18T00:59:50.708Z,12.08
2017-04-18T01:00:49.971Z,12.23
2017-04-18T01:01:49.319Z,12.95
2017-04-18T01:02:48.664Z,14.73
2017-04-18T01:03:47.994Z,13.30
2017-04-18T01:04:47.330Z,14.58
2017-04-18T01:05:46.747Z,13.77
2017-04-18T01:06:46.066Z,16.10
2017-04-18T01:07:45.429Z,17.35
2017-04-18T01:08:45.537Z,15.02
2017-04-18T01:09:44.859Z,14.47
2017-04-18T01:10:44.153Z,14.53
2017-04-18T01:11:43.501Z,15.47
2017-04-18T01:12:42.839Z,15.02
2017-04-18T01:13:42.303Z,15.68
2017-04-18T01:14:41.617Z,16.07
2017-04-18T01:15:40.950Z,15.75
2017-04-18T01:16:40.219Z,16.18
2017-04-18T01:17:39.549Z,16.88
2017-04-18T01:18:38.900Z,16.70
2017-04-18T01:19:38.229Z,15.67
2017-04-18T01:20:38.403Z,17.38
2017-04-18T01:21:38.485Z,17.83
2017-04-18T01:22:37.757Z,16.38
2017-04-18T01:23:37.069Z,16.90
2017-04-18T01:24:37.110Z,18.15
2017-04-18T01:25:36.409Z,16.47
2017-04-18T01:26:35.712Z,15.75
2017-04-18T01:27:35.075Z,14.52
2017-04-18T01:28:34.361Z,14.55
2017-04-18T01:29:33.755Z,15.62
2017-04-18T01:30:33.064Z,17.43
2017-04-18T01:31:32.347Z,15.33
2017-04-18T01:32:31.652Z,15.37
2017-04-18T01:33:30.961Z,21.12
2017-04-18T01:34:31.129Z,15.93
2017-04-18T01:35:30.449Z,18.03
2017-04-18T01:36:29.779Z,16.47
2017-04-18T01:37:29.111Z,15.62
2017-04-18T01:38:28.389Z,16.88
2017-04-18T01:39:27.740Z,14.92
2017-04-18T01:40:32.375Z,15.27
2017-04-18T01:41:37.822Z,14.35
2017-04-18T01:44:47.817Z,16.70
2017-04-18T01:45:52.492Z,16.53
2017-04-18T01:46:51.825Z,12.15
2017-04-18T01:47:51.882Z,17.75
2017-04-18T01:48:51.184Z,13.67
2017-04-18T01:49:50.891Z,14.58
2017-04-18T01:50:50.205Z,14.53
2017-04-18T01:51:49.470Z,15.57
2017-04-18T01:52:48.763Z,15.60
2017-04-18T01:53:48.050Z,14.25
2017-04-18T01:54:47.379Z,14.18
2017-04-18T01:55:46.737Z,14.28
2017-04-18T01:56:46.400Z,14.30
2017-04-18T01:57:45.701Z,14.30
2017-04-18T01:58:45.086Z,14.65
2017-04-18T01:59:44.402Z,13.53
2017-04-18T02:00:43.727Z,13.33
2017-04-18T02:01:43.094Z,13.17
2017-04-18T02:02:42.381Z,13.08
2017-04-18T02:03:41.717Z,11.93
2017-04-18T02:04:41.084Z,12.25
2017-04-18T02:05:40.428Z,11.23
2017-04-18T02:06:39.774Z,11.40
2017-04-18T02:07:39.882Z,11.53
2017-04-18T02:08:39.212Z,9.60
2017-04-18T02:09:38.554Z,12.48
2017-04-18T02:10:37.870Z,9.82
2017-04-18T02:11:37.227Z,10.60
2017-04-18T02:12:36.596Z,10.58
2017-04-18T02:13:35.912Z,10.68
2017-04-18T02:14:35.232Z,10.60
2017-04-18T02:15:34.548Z,11.55
2017-04-18T02:16:33.966Z,9.90
2017-04-18T02:17:33.759Z,12.17
2017-04-18T02:18:33.131Z,10.62
2017-04-18T02:19:32.579Z,10.25
2017-04-18T02:20:31.935Z,9.30
2017-04-18T02:21:31.273Z,12.93
2017-04-18T02:22:31.330Z,10.72
2017-04-18T02:23:30.679Z,11.47
2017-04-18T02:24:29.974Z,9.40
2017-04-18T02:25:29.277Z,10.72
2017-04-18T02:26:28.577Z,10.12
2017-04-18T02:27:28.637Z,12.75
2017-04-18T02:28:27.950Z,11.60
2017-04-18T02:29:27.732Z,11.80
2017-04-18T02:30:27.316Z,12.00
2017-04-18T02:31:26.666Z,11.52
2017-04-18T02:32:25.979Z,12.78
2017-04-18T02:33:25.312Z,10.40
2017-04-18T02:34:24.694Z,12.62
2017-04-18T02:35:24.105Z,14.43
2017-04-18T02:36:23.410Z,12.05
2017-04-18T02:37:22.726Z,12.93
2017-04-18T02:38:22.017Z,11.78
2017-04-18T02:39:22.074Z,12.35
2017-04-18T02:40:21.366Z,11.77
2017-04-18T02:41:20.669Z,15.47
2017-04-18T02:42:20.714Z,12.88
2017-04-18T02:43:19.994Z,13.02
2017-04-18T02:44:19.295Z,11.37
2017-04-18T02:45:18.744Z,12.50
2017-04-18T02:46:18.859Z,11.08
2017-04-18T02:47:18.173Z,11.85
2017-04-18T02:48:17.483Z,14.82
2017-04-18T02:49:16.767Z,13.68
2017-04-18T02:50:16.042Z,12.32
2017-04-18T02:51:15.457Z,13.27
2017-04-18T02:52:14.791Z,12.13
2017-04-18T02:53:14.037Z,13.68
2017-04-18T02:54:13.319Z,13.65
2017-04-18T02:55:12.644Z,12.67
2017-04-18T02:56:12.084Z,17.22
2017-04-18T02:57:11.782Z,15.37
2017-04-18T02:58:11.070Z,14.03
2017-04-18T02:59:10.423Z,13.88
2017-04-18T03:00:09.757Z,13.10
2017-04-18T03:01:09.104Z,13.68
2017-04-18T03:02:08.425Z,12.80
2017-04-18T03:03:07.841Z,15.40
2017-04-18T03:04:07.180Z,15.28
2017-04-18T03:05:06.502Z,15.58
2017-04-18T03:06:06.162Z,16.77
2017-04-18T03:07:05.453Z,14.47
2017-04-18T03:08:04.767Z,16.63
2017-04-18T03:09:04.458Z,16.70
2017-04-18T03:10:03.770Z,17.40
2017-04-18T03:11:03.059Z,16.03
2017-04-18T03:12:02.415Z,15.32
2017-04-18T03:13:01.826Z,18.48
2017-04-18T03:14:01.109Z,15.82
2017-04-18T03:15:00.372Z,19.40
2017-04-18T03:15:59.626Z,18.42
2017-04-18T03:16:59.043Z,20.52
2017-04-18T03:17:58.347Z,19.65
2017-04-18T03:18:57.661Z,16.95
2017-04-18T03:19:57.028Z,20.53
2017-04-18T03:20:56.348Z,18.97
2017-04-18T03:21:55.676Z,17.13
2017-04-18T03:22:55.035Z,19.08
2017-04-18T03:23:54.389Z,17.45
2017-04-18T03:24:53.711Z,21.98
2017-04-18T03:25:53.041Z,16.02
2017-04-18T03:26:53.172Z,18.07
2017-04-18T03:27:52.465Z,23.13
2017-04-18T03:28:51.738Z,19.30
2017-04-18T03:29:51.008Z,18.25
2017-04-18T03:30:50.291Z,21.50
2017-04-18T03:31:49.637Z,18.10
2017-04-18T03:32:49.155Z,17.87
2017-04-18T03:33:48.598Z,18.37
2017-04-18T03:34:47.913Z,20.55
2017-04-18T03:35:47.256Z,19.12
2017-04-18T03:36:46.610Z,16.97
2017-04-18T03:37:46.002Z,16.07
2017-04-18T03:38:45.327Z,18.20
2017-04-18T03:39:44.645Z,17.93
2017-04-18T03:40:43.952Z,19.60
2017-04-18T03:41:43.398Z,18.77
2017-04-18T03:42:42.711Z,18.37
2017-04-18T03:43:42.231Z,20.17
2017-04-18T03:44:41.550Z,18.28
2017-04-18T03:45:41.635Z,16.92
2017-04-18T03:46:40.993Z,17.08
2017-04-18T03:47:40.389Z,17.02
2017-04-18T03:48:39.696Z,17.48
2017-04-18T03:49:39.013Z,16.97
2017-04-18T03:50:39.083Z,18.33
2017-04-18T03:51:38.422Z,16.30
2017-04-18T03:52:37.728Z,16.53
2017-04-18T03:53:37.063Z,16.82
2017-04-18T03:54:36.354Z,18.28
2017-04-18T03:55:35.660Z,19.08
2017-04-18T03:56:34.997Z,16.53
2017-04-18T03:57:34.347Z,17.72
2017-04-18T03:58:33.723Z,17.65
2017-04-18T03:59:33.026Z,14.90
2017-04-18T04:00:32.493Z,18.70
2017-04-18T04:01:32.075Z,15.55
2017-04-18T04:02:31.573Z,16.62
2017-04-18T04:03:30.948Z,17.83
2017-04-18T04:04:30.358Z,17.13
2017-04-18T04:05:29.729Z,16.83
2017-04-18T04:06:29.128Z,18.12
2017-04-18T04:07:28.483Z,15.87
2017-04-18T04:08:27.838Z,17.17
2017-04-18T04:09:27.177Z,16.80
2017-04-18T04:10:26.501Z,17.62
2017-04-18T04:11:25.802Z,16.90
2017-04-18T04:12:25.523Z,15.90
2017-04-18T04:13:24.840Z,14.78
2017-04-18T04:14:24.185Z,17.60
2017-04-18T04:15:24.351Z,21.58
2017-04-18T04:16:23.656Z,15.73
2017-04-18T04:17:23.004Z,17.28
2017-04-18T04:18:22.328Z,16.70
2017-04-18T04:19:21.618Z,15.83
2017-04-18T04:20:21.473Z,14.68
2017-04-18T04:21:20.758Z,14.92
2017-04-18T04:22:20.460Z,15.75
2017-04-18T04:23:19.789Z,15.08
2017-04-18T04:24:19.121Z,16.85
2017-04-18T04:25:18.471Z,17.03
2017-04-18T04:26:17.729Z,15.82
2017-04-18T04:27:17.023Z,19.55
2017-04-18T04:28:16.415Z,15.60
2017-04-18T04:29:15.733Z,14.45
2017-04-18T04:30:15.047Z,14.10
2017-04-18T04:31:14.403Z,15.15
2017-04-18T04:32:13.728Z,14.27
2017-04-18T04:33:13.081Z,15.30
2017-04-18T04:34:12.392Z,14.87
2017-04-18T04:35:12.440Z,11.03
2017-04-18T04:36:11.832Z,14.67
2017-04-18T04:37:11.756Z,13.43
2017-04-18T04:38:11.110Z,14.95
2017-04-18T04:39:10.425Z,13.17
2017-04-18T04:40:09.733Z,12.12
2017-04-18T04:41:09.066Z,15.75
2017-04-18T04:42:08.368Z,10.73
2017-04-18T04:43:07.721Z,14.82
2017-04-18T04:44:07.086Z,11.13
2017-04-18T04:45:06.448Z,11.37
2017-04-18T04:46:05.769Z,11.55
2017-04-18T04:47:05.082Z,12.63
2017-04-18T04:48:04.397Z,9.52
2017-04-18T04:49:03.756Z,10.35
2017-04-18T04:50:03.080Z,9.40
2017-04-18T04:51:02.359Z,9.32
2017-04-18T04:52:01.851Z,10.90
2017-04-18T04:53:01.186Z,8.93
2017-04-18T04:54:00.505Z,8.68
2017-04-18T04:54:59.805Z,8.18
2017-04-18T04:55:59.109Z,11.45
2017-04-18T04:56:58.403Z,7.70
2017-04-18T04:57:57.764Z,9.45
2017-04-18T04:58:57.092Z,11.42
2017-04-18T04:59:56.347Z,10.20
2017-04-18T05:00:55.715Z,8.17
2017-04-18T05:01:55.048Z,9.80
2017-04-18T05:02:54.387Z,8.40
2017-04-18T05:03:53.872Z,9.37
2017-04-18T05:04:53.179Z,7.75
2017-04-18T05:05:52.456Z,7.78
2017-04-18T05:06:51.879Z,12.47
2017-04-18T05:07:51.172Z,7.72
2017-04-18T05:08:50.492Z,8.87
2017-04-18T05:09:50.024Z,10.12
2017-04-18T05:10:49.350Z,10.00
2017-04-18T05:11:48.703Z,11.42
2017-04-18T05:12:47.984Z,7.42
2017-04-18T05:13:47.291Z,7.42
2017-04-18T05:14:46.543Z,9.97
2017-04-18T05:15:45.885Z,8.27
2017-04-18T05:16:45.208Z,7.47
2017-04-18T05:17:44.478Z,9.05
2017-04-18T05:18:43.872Z,8.18
2017-04-18T05:19:43.187Z,8.68
2017-04-18T05:20:42.657Z,6.93
2017-04-18T05:21:41.923Z,7.73
2017-04-18T05:22:41.178Z,7.65
2017-04-18T05:23:40.576Z,7.88
2017-04-18T05:24:40.639Z,7.70
2017-04-18T05:25:39.891Z,7.35
2017-04-18T05:26:39.110Z,8.07
2017-04-18T05:27:38.403Z,7.12
2017-04-18T05:28:37.843Z,8.78
2017-04-18T05:29:37.869Z,8.95
2017-04-18T05:30:37.238Z,11.75
2017-04-18T05:31:37.237Z,8.78
2017-04-18T05:32:36.564Z,7.30
2017-04-18T05:33:35.906Z,7.15
2017-04-18T05:34:35.183Z,6.65
2017-04-18T05:35:34.534Z,7.37
2017-04-18T05:36:33.823Z,7.88
2017-04-18T05:37:33.081Z,6.13
2017-04-18T05:38:32.763Z,11.00
2017-04-18T05:39:32.049Z,6.88
2017-04-18T05:40:31.358Z,7.37
2017-04-18T05:41:30.605Z,7.22
2017-04-18T05:42:29.908Z,6.18
2017-04-18T05:43:29.208Z,6.10
2017-04-18T05:44:28.519Z,7.30
2017-04-18T05:45:28.517Z,6.57
2017-04-18T05:46:27.819Z,9.53
2017-04-18T05:47:27.083Z,6.98
2017-04-18T05:48:26.362Z,6.60
2017-04-18T05:49:25.701Z,6.90
2017-04-18T05:50:25.729Z,7.67
2017-04-18T05:51:24.975Z,6.37
2017-04-18T05:52:24.324Z,7.68
2017-04-18T05:53:23.609Z,6.98
2017-04-18T05:54:23.314Z,6.23
2017-04-18T05:55:22.577Z,6.15
2017-04-18T05:56:21.891Z,6.72
2017-04-18T05:57:22.018Z,5.98
2017-04-18T05:58:21.487Z,6.13
2017-04-18T05:59:20.758Z,6.97
2017-04-18T06:00:20.041Z,5.80
2017-04-18T06:01:19.304Z,6.22
2017-04-18T06:02:18.558Z,6.52
2017-04-18T06:03:17.839Z,6.52
2017-04-18T06:04:17.130Z,6.68
2017-04-18T06:05:16.426Z,6.72
2017-04-18T06:06:15.695Z,6.78
2017-04-18T06:07:15.000Z,6.40
2017-04-18T06:08:14.360Z,6.03
2017-04-18T06:09:13.832Z,7.75
2017-04-18T06:10:13.151Z,6.88
2017-04-18T06:11:12.433Z,7.25
2017-04-18T06:12:12.478Z,7.75
2017-04-18T06:13:11.780Z,6.73
2017-04-18T06:14:11.099Z,6.78
2017-04-18T06:15:10.358Z,5.42
2017-04-18T06:16:10.396Z,5.82
2017-04-18T06:17:09.686Z,5.58
2017-04-18T06:18:08.960Z,5.80
2017-04-18T06:19:08.543Z,6.67
2017-04-18T06:20:07.809Z,5.92
2017-04-18T06:21:07.193Z,5.07
2017-04-18T06:22:06.440Z,6.32
2017-04-18T06:23:05.732Z,6.13
2017-04-18T06:24:05.010Z,7.08
2017-04-18T06:25:04.340Z,5.92
2017-04-18T06:26:03.628Z,7.12
2017-04-18T06:27:03.759Z,6.73
2017-04-18T06:28:03.081Z,5.97
2017-04-18T06:29:02.484Z,9.72
2017-04-18T06:30:01.843Z,5.53
2017-04-18T06:31:01.136Z,5.72
2017-04-18T06:32:00.459Z,6.08
2017-04-18T06:32:59.742Z,6.05
2017-04-18T06:33:59.117Z,6.48
2017-04-18T06:34:58.416Z,7.47
2017-04-18T06:35:57.717Z,6.22
2017-04-18T06:36:56.984Z,4.97
2017-04-18T06:37:56.319Z,5.18
2017-04-18T06:38:55.666Z,4.30
2017-04-18T06:39:55.298Z,5.13
2017-04-18T06:40:54.615Z,5.43
2017-04-18T06:41:53.918Z,4.93
2017-04-18T06:42:53.158Z,6.43
2017-04-18T06:43:59.966Z,4.88
2017-04-18T06:44:59.710Z,5.50
2017-04-18T06:45:58.992Z,4.82
2017-04-18T06:46:58.260Z,4.42
2017-04-18T06:47:57.542Z,5.42
2017-04-18T06:48:56.763Z,7.02
2017-04-18T06:49:56.058Z,4.27
2017-04-18T06:50:55.772Z,6.70
2017-04-18T06:51:55.073Z,4.82
2017-04-18T06:52:54.384Z,6.28
2017-04-18T06:53:54.411Z,4.27
2017-04-18T06:54:53.686Z,4.45
2017-04-18T06:55:53.014Z,4.47
2017-04-18T06:56:52.626Z,6.47
2017-04-18T06:57:51.906Z,5.57
2017-04-18T06:58:51.209Z,4.98
2017-04-18T06:59:50.586Z,4.62
2017-04-18T07:00:49.902Z,7.97
2017-04-18T07:01:49.167Z,3.83
2017-04-18T07:02:52.632Z,4.33
2017-04-18T07:03:51.924Z,3.98
2017-04-18T07:04:51.200Z,5.05
2017-04-18T07:05:50.471Z,4.28
2017-04-18T07:06:49.747Z,4.32
2017-04-18T07:07:49.023Z,4.40
2017-04-18T07:08:48.588Z,4.55
2017-04-18T07:09:47.839Z,4.15
2017-04-18T07:10:47.834Z,3.72
2017-04-18T07:11:47.208Z,3.88
2017-04-18T07:12:46.525Z,3.12
2017-04-18T07:13:45.806Z,3.17
2017-04-18T07:14:45.471Z,3.23
2017-04-18T07:15:44.731Z,4.00
2017-04-18T07:16:44.083Z,3.98
2017-04-18T07:17:43.944Z,5.43
2017-04-18T07:18:43.331Z,3.68
2017-04-18T07:19:42.589Z,11.38
2017-04-18T07:20:42.242Z,3.08
2017-04-18T07:21:41.562Z,4.17
2017-04-18T07:22:41.639Z,3.23
2017-04-18T07:23:41.698Z,3.60
2017-04-18T07:24:41.010Z,2.83
2017-04-18T07:25:40.301Z,3.43
2017-04-18T07:26:39.907Z,3.63
2017-04-18T07:27:39.230Z,4.17
2017-04-18T07:28:38.513Z,3.02
2017-04-18T07:29:37.859Z,2.82
2017-04-18T07:30:37.173Z,3.42
2017-04-18T07:31:36.504Z,3.48
2017-04-18T07:32:36.085Z,3.17
2017-04-18T07:33:35.343Z,3.72
2017-04-18T07:34:34.793Z,3.10
2017-04-18T07:35:34.785Z,3.27
2017-04-18T07:36:34.023Z,3.17
2017-04-18T07:37:33.287Z,4.15
2017-04-18T07:38:32.995Z,7.52
2017-04-18T07:39:33.582Z,3.62
2017-04-18T07:40:32.869Z,4.53
2017-04-18T07:41:32.214Z,4.32
2017-04-18T07:42:31.498Z,4.13
2017-04-18T07:43:30.761Z,4.62
2017-04-18T07:44:30.500Z,3.43
2017-04-18T07:45:29.777Z,5.07
2017-04-18T07:46:29.109Z,5.23
2017-04-18T07:47:28.362Z,6.85
2017-04-18T07:48:27.630Z,3.97
2017-04-18T07:49:26.905Z,2.98
2017-04-18T07:50:27.208Z,5.25
2017-04-18T07:51:27.193Z,3.53
2017-04-18T07:52:26.439Z,3.87
2017-04-18T07:53:25.738Z,7.02
2017-04-18T07:54:24.980Z,5.68
2017-04-18T07:55:24.257Z,3.12
2017-04-18T07:56:23.942Z,4.07
2017-04-18T07:57:23.230Z,3.53
2017-04-18T07:58:23.282Z,4.78
2017-04-18T07:59:23.261Z,3.10
2017-04-18T08:00:22.539Z,4.17
2017-04-18T08:01:21.817Z,4.77
2017-04-18T08:02:21.381Z,4.48
2017-04-18T08:03:20.637Z,3.47
2017-04-18T08:04:19.918Z,8.95
2017-04-18T08:05:19.177Z,3.58
2017-04-18T08:06:18.442Z,2.32
2017-04-18T08:07:17.710Z,3.35
2017-04-18T08:08:17.350Z,3.20
2017-04-18T08:09:17.184Z,5.92
2017-04-18T08:10:16.492Z,5.05
2017-04-18T08:11:15.796Z,2.85
2017-04-18T08:12:15.088Z,4.65
2017-04-18T08:13:15.136Z,6.05
2017-04-18T08:14:14.740Z,2.87
2017-04-18T08:15:14.074Z,3.65
2017-04-18T08:16:14.131Z,3.17
2017-04-18T08:17:13.415Z,2.95
2017-04-18T08:18:12.689Z,3.03
2017-04-18T08:19:12.656Z,3.27
2017-04-18T08:20:12.204Z,3.37
2017-04-18T08:21:11.474Z,4.53
2017-04-18T08:22:10.778Z,3.78
2017-04-18T08:23:10.076Z,5.58
2017-04-18T08:24:09.423Z,3.23
2017-04-18T08:25:08.951Z,3.10
2017-04-18T08:26:08.633Z,3.23
2017-04-18T08:27:07.945Z,3.80
2017-04-18T08:28:07.238Z,3.83
2017-04-18T08:29:06.496Z,2.87
2017-04-18T08:30:05.835Z,5.08
2017-04-18T08:31:05.171Z,4.60
2017-04-18T08:32:05.531Z,4.58
2017-04-18T08:33:04.843Z,3.48
2017-04-18T08:34:04.139Z,3.67
2017-04-18T08:35:03.522Z,4.22
2017-04-18T08:36:02.815Z,5.57
2017-04-18T08:37:02.147Z,3.48
2017-04-18T08:38:01.784Z,3.88
2017-04-18T08:39:01.096Z,5.67
2017-04-18T08:40:00.406Z,5.15
2017-04-18T08:40:59.755Z,4.60
2017-04-18T08:41:59.087Z,2.73
2017-04-18T08:42:58.403Z,2.93
2017-04-18T08:43:58.145Z,4.88
2017-04-18T08:44:58.732Z,3.62
2017-04-18T08:45:58.109Z,3.55
2017-04-18T08:46:57.424Z,5.37
2017-04-18T08:47:56.737Z,4.52
2017-04-18T08:48:56.099Z,3.62
2017-04-18T08:49:56.242Z,4.07
2017-04-18T08:50:55.581Z,3.10
2017-04-18T08:51:55.971Z,4.33
2017-04-18T08:52:55.600Z,3.68
2017-04-18T08:53:54.926Z,4.12
2017-04-18T08:56:18.790Z,6.38
2017-04-18T08:57:19.575Z,4.35
2017-04-18T08:58:19.357Z,6.23
2017-04-18T08:59:18.909Z,3.55
2017-04-18T09:00:18.379Z,5.83
2017-04-18T09:01:17.959Z,3.17
2017-04-18T09:02:17.397Z,3.40
2017-04-18T09:03:16.798Z,3.23
2017-04-18T09:04:16.089Z,4.12
2017-04-18T09:05:15.446Z,4.10
2017-04-18T09:06:14.842Z,4.95
2017-04-18T09:07:15.141Z,3.32
2017-04-18T09:08:14.528Z,4.40
2017-04-18T09:09:13.799Z,4.45
2017-04-18T09:10:14.086Z,4.82
2017-04-18T09:11:13.777Z,4.60
2017-04-18T09:12:13.724Z,3.68
2017-04-18T09:13:13.897Z,3.85
2017-04-18T09:14:13.431Z,4.35
2017-04-18T09:15:12.986Z,3.30
2017-04-18T09:16:12.876Z,3.95
2017-04-18T09:17:12.684Z,3.58
2017-04-18T09:18:12.076Z,4.68
2017-04-18T09:19:11.784Z,3.60
2017-04-18T09:20:11.149Z,4.28
2017-04-18T09:21:10.490Z,3.12
2017-04-18T09:22:09.725Z,6.82
2017-04-18T09:23:09.045Z,6.45
2017-04-18T09:24:08.453Z,3.75
2017-04-18T09:25:08.893Z,3.92
2017-04-18T09:26:08.425Z,3.53
2017-04-18T09:27:07.859Z,3.17
2017-04-18T09:28:07.586Z,6.28
2017-04-18T09:29:07.386Z,3.08
2017-04-18T09:30:07.216Z,3.82
2017-04-18T09:31:07.037Z,5.58
2017-04-18T09:32:06.634Z,3.03
2017-04-18T09:33:06.012Z,3.67
2017-04-18T09:34:05.375Z,3.92
2017-04-18T09:35:04.671Z,5.50
2017-04-18T09:36:04.726Z,7.00
2017-04-18T09:37:04.332Z,4.80
2017-04-18T09:38:03.756Z,3.60
2017-04-18T09:39:03.145Z,5.87
2017-04-18T09:40:03.262Z,5.07
2017-04-18T09:41:02.685Z,3.53
2017-04-18T09:42:02.000Z,4.52
2017-04-18T09:43:01.816Z,9.17
2017-04-18T09:44:01.132Z,4.32
2017-04-18T09:45:00.432Z,3.45
2017-04-18T09:45:59.676Z,5.33
2017-04-18T09:46:58.985Z,3.10
2017-04-18T09:47:58.305Z,4.03
2017-04-18T09:48:58.695Z,4.17
2017-04-18T09:49:58.050Z,3.97
2017-04-18T09:50:57.458Z,3.17
2017-04-18T09:51:56.787Z,3.63
2017-04-18T09:52:56.294Z,4.08
2017-04-18T09:53:56.349Z,3.60
2017-04-18T09:54:55.927Z,3.87
2017-04-18T09:55:55.259Z,5.80
2017-04-18T09:56:54.561Z,3.63
2017-04-18T09:57:54.072Z,3.18
2017-04-18T09:58:53.337Z,3.25
2017-04-18T09:59:52.661Z,3.73
2017-04-18T10:00:52.011Z,3.48
2017-04-18T10:01:51.345Z,4.25
2017-04-18T10:02:51.400Z,3.78
2017-04-18T10:03:50.721Z,3.45
2017-04-18T10:04:50.142Z,3.02
2017-04-18T10:05:49.776Z,3.35
2017-04-18T10:06:49.073Z,3.13
2017-04-18T10:07:48.457Z,2.97
2017-04-18T10:08:47.772Z,3.52
2017-04-18T10:09:47.149Z,3.68
2017-04-18T10:10:46.427Z,2.95
2017-04-18T10:11:46.425Z,3.00
2017-04-18T10:12:45.795Z,2.70
2017-04-18T10:13:45.897Z,2.93
2017-04-18T10:14:45.270Z,6.35
2017-04-18T10:15:44.665Z,4.17
2017-04-18T10:16:44.211Z,2.95
2017-04-18T10:17:43.729Z,3.08
2017-04-18T10:18:42.990Z,3.25
2017-04-18T10:19:42.242Z,2.95
2017-04-18T10:20:41.492Z,3.15
2017-04-18T10:21:41.550Z,3.30
2017-04-18T10:22:42.488Z,3.02
2017-04-18T10:23:42.131Z,2.87
2017-04-18T10:24:41.427Z,2.90
2017-04-18T10:25:40.934Z,4.48
2017-04-18T10:26:40.212Z,3.45
2017-04-18T10:27:39.451Z,3.27
2017-04-18T10:28:38.783Z,2.65
2017-04-18T10:29:38.076Z,2.48
2017-04-18T10:30:37.426Z,3.12
2017-04-18T10:31:36.709Z,2.33
2017-04-18T10:32:36.011Z,2.97
2017-04-18T10:33:35.285Z,2.35
2017-04-18T10:34:35.931Z,4.10
2017-04-18T10:35:35.230Z,2.60
2017-04-18T10:36:34.519Z,2.22
2017-04-18T10:37:33.797Z,2.68
2017-04-18T10:38:33.043Z,2.23
2017-04-18T10:39:32.316Z,2.12
2017-04-18T10:40:31.885Z,2.72
2017-04-18T10:41:31.115Z,3.90
2017-04-18T10:42:30.364Z,2.72
2017-04-18T10:43:29.619Z,2.87
2017-04-18T10:44:29.126Z,2.45
2017-04-18T10:45:28.389Z,2.13
2017-04-18T10:46:28.742Z,2.90
2017-04-18T10:47:27.996Z,2.80
2017-04-18T10:48:27.322Z,3.47
2017-04-18T10:49:26.938Z,5.65
2017-04-18T10:50:26.976Z,2.52
2017-04-18T10:51:26.286Z,2.95
2017-04-18T10:52:26.046Z,3.23
2017-04-18T10:53:25.436Z,2.95
2017-04-18T10:54:24.780Z,2.93
2017-04-18T10:55:24.050Z,4.77
2017-04-18T10:56:24.074Z,4.90
2017-04-18T10:57:23.637Z,4.92
2017-04-18T10:58:23.362Z,2.65
2017-04-18T10:59:23.426Z,3.18
2017-04-18T11:00:22.738Z,2.55
2017-04-18T11:01:22.049Z,2.87
2017-04-18T11:02:22.071Z,2.90
2017-04-18T11:03:21.533Z,4.77
2017-04-18T11:04:21.182Z,3.13
2017-04-18T11:05:20.506Z,4.53
2017-04-18T11:06:19.820Z,2.70
2017-04-18T11:07:19.900Z,5.12
2017-04-18T11:08:19.203Z,4.08
2017-04-18T11:09:18.483Z,3.08
2017-04-18T11:10:18.171Z,3.42
2017-04-18T11:11:17.525Z,2.73
2017-04-18T11:12:16.878Z,3.58
2017-04-18T11:13:16.186Z,3.17
2017-04-18T11:14:16.223Z,4.72
2017-04-18T11:15:15.480Z,5.40
2017-04-18T11:16:15.135Z,3.65
2017-04-18T11:17:14.711Z,3.30
2017-04-18T11:18:14.012Z,3.12
2017-04-18T11:19:13.282Z,2.77
2017-04-18T11:20:12.551Z,3.63
2017-04-18T11:21:11.808Z,3.70
2017-04-18T11:22:11.356Z,4.87
2017-04-18T11:23:10.606Z,4.77
2017-04-18T11:24:12.083Z,4.30
2017-04-18T11:25:11.477Z,3.53
2017-04-18T11:26:10.785Z,2.68
2017-04-18T11:27:10.065Z,2.90
2017-04-18T11:28:09.674Z,3.25
2017-04-18T11:29:08.932Z,3.38
2017-04-18T11:30:08.288Z,2.70
2017-04-18T11:31:07.654Z,2.60
2017-04-18T11:32:06.950Z,3.23
2017-04-18T11:33:06.356Z,3.95
2017-04-18T11:34:06.035Z,4.07
2017-04-18T11:35:05.290Z,3.68
2017-04-18T11:36:04.617Z,2.60
2017-04-18T11:37:03.947Z,2.93
2017-04-18T11:38:03.268Z,3.27
2017-04-18T11:39:02.573Z,2.55
2017-04-18T11:40:02.183Z,5.72
2017-04-18T11:41:01.450Z,3.18
2017-04-18T11:42:00.796Z,5.40
2017-04-18T11:43:00.087Z,2.65
2017-04-18T11:43:59.360Z,2.70
2017-04-18T11:44:58.601Z,4.73
2017-04-18T11:45:58.165Z,4.25
2017-04-18T11:46:57.473Z,2.63
2017-04-18T11:47:57.567Z,3.17
2017-04-18T11:48:56.968Z,2.60
2017-04-18T11:49:56.252Z,2.85
2017-04-18T11:50:55.539Z,3.00
2017-04-18T11:51:55.106Z,3.32
2017-04-18T11:52:54.386Z,2.53
2017-04-18T11:53:53.661Z,2.18
2017-04-18T11:54:52.902Z,2.43
2017-04-18T11:55:52.943Z,3.00
2017-04-18T11:56:52.244Z,2.48
2017-04-18T11:57:51.815Z,2.30
2017-04-18T11:58:51.121Z,3.60
2017-04-18T11:59:50.498Z,3.50
2017-04-18T12:00:49.777Z,5.37
2017-04-18T12:01:49.030Z,4.48
2017-04-18T12:02:48.336Z,4.67
2017-04-18T12:03:47.994Z,5.50
2017-04-18T12:04:47.291Z,4.82
2017-04-18T12:05:46.602Z,4.18
2017-04-18T12:06:45.864Z,4.28
2017-04-18T12:07:45.153Z,3.50
2017-04-18T12:08:44.442Z,2.80
2017-04-18T12:09:44.186Z,3.25
2017-04-18T12:10:43.619Z,2.98
2017-04-18T12:11:42.861Z,2.67
2017-04-18T12:12:42.156Z,3.62
2017-04-18T12:13:41.544Z,2.15
2017-04-18T12:14:40.889Z,2.70
2017-04-18T12:15:40.503Z,3.15
2017-04-18T12:16:39.825Z,5.65
2017-04-18T12:17:39.214Z,6.10
2017-04-18T12:19:00.723Z,3.28
2017-04-18T12:19:59.957Z,3.28
2017-04-18T12:20:59.639Z,3.92
2017-04-18T12:21:58.995Z,4.33
2017-04-18T12:22:58.312Z,3.07
2017-04-18T12:23:57.687Z,3.27
2017-04-18T12:24:57.150Z,2.95
2017-04-18T12:25:56.466Z,2.63
2017-04-18T12:26:56.045Z,3.92
2017-04-18T12:27:55.372Z,3.50
2017-04-18T12:28:54.628Z,2.65
2017-04-18T12:29:54.012Z,3.47
2017-04-18T12:30:53.309Z,3.13
2017-04-18T12:31:52.638Z,2.87
2017-04-18T12:32:53.133Z,2.58
2017-04-18T12:33:52.575Z,2.52
2017-04-18T12:34:55.417Z,2.63
2017-04-18T12:35:54.903Z,3.10
2017-04-18T12:36:55.165Z,2.72
2017-04-18T12:37:54.923Z,3.73
2017-04-18T12:38:54.488Z,4.13
2017-04-18T12:39:53.969Z,3.07
2017-04-18T12:40:53.334Z,2.32
2017-04-18T12:41:52.772Z,3.52
2017-04-18T12:42:52.275Z,2.18
2017-04-18T12:44:14.617Z,2.38
2017-04-18T12:45:14.438Z,1.85
2017-04-18T12:46:13.823Z,3.10
2017-04-18T12:47:13.189Z,2.73
2017-04-18T12:48:12.537Z,6.43
2017-04-18T12:49:11.892Z,3.53
2017-04-18T12:50:11.676Z,2.42
2017-04-18T12:51:11.045Z,6.47
2017-04-18T12:52:10.458Z,2.10
2017-04-18T12:53:09.758Z,2.53
2017-04-18T12:54:09.146Z,2.65
2017-04-18T12:55:08.484Z,2.83
2017-04-18T12:56:08.210Z,2.20
2017-04-18T12:57:07.536Z,2.83
2017-04-18T12:58:06.928Z,2.32
2017-04-18T12:59:06.342Z,2.53
2017-04-18T13:00:06.378Z,2.27
2017-04-18T13:01:05.851Z,3.02
2017-04-18T13:02:05.628Z,2.32
2017-04-18T13:03:05.022Z,2.48
2017-04-18T13:04:04.441Z,2.63
2017-04-18T13:05:03.796Z,2.55
2017-04-18T13:06:03.159Z,4.68
2017-04-18T13:07:02.501Z,3.40
2017-04-18T13:08:02.950Z,2.93
2017-04-18T13:09:02.476Z,3.92
2017-04-18T13:10:01.891Z,2.67
2017-04-18T13:11:01.285Z,6.03
2017-04-18T13:12:01.416Z,2.55
2017-04-18T13:13:00.785Z,3.03
2017-04-18T13:14:00.523Z,4.28
2017-04-18T13:14:59.909Z,13.55